sensor_id;sensor_type;location;lat;lon;timestamp;P1;durP1;ratioP1;P2;durP2;ratioP2
74291;SDS011;62687;55.738;37.516;2023-02-04T00:02:08;9.05;;;4.68;;
74291;SDS011;62687;55.738;37.516;2023-02-04T00:04:53;12.65;;;5.07;;
74291;SDS011;62687;55.738;37.516;2023-02-04T00:07:36;10.27;;;5.80;;
74291;SDS011;62687;55.738;37.516;2023-02-04T00:10:20;10.32;;;5.40;;
74291;SDS011;62687;55.738;37.516;2023-02-04T00:13:04;10.50;;;5.30;;
74291;SDS011;62687;55.738;37.516;2023-02-04T00:15:49;7.63;;;4.57;;
74291;SDS011;62687;55.738;37.516;2023-02-04T00:18:33;7.60;;;5.15;;
74291;SDS011;62687;55.738;37.516;2023-02-04T00:21:17;9.25;;;4.95;;
74291;SDS011;62687;55.738;37.516;2023-02-04T00:24:01;9.02;;;5.03;;
74291;SDS011;62687;55.738;37.516;2023-02-04T00:26:45;7.47;;;4.70;;
74291;SDS011;62687;55.738;37.516;2023-02-04T00:29:30;10.13;;;5.22;;
74291;SDS011;62687;55.738;37.516;2023-02-04T00:32:14;8.82;;;5.10;;
74291;SDS011;62687;55.738;37.516;2023-02-04T00:34:58;9.82;;;4.38;;
74291;SDS011;62687;55.738;37.516;2023-02-04T00:37:44;8.13;;;4.07;;
74291;SDS011;62687;55.738;37.516;2023-02-04T00:40:28;8.38;;;4.47;;
74291;SDS011;62687;55.738;37.516;2023-02-04T00:43:12;8.52;;;4.30;;
74291;SDS011;62687;55.738;37.516;2023-02-04T00:45:56;9.32;;;4.65;;
74291;SDS011;62687;55.738;37.516;2023-02-04T00:48:40;7.57;;;3.85;;
74291;SDS011;62687;55.738;37.516;2023-02-04T00:51:24;7.22;;;3.90;;
74291;SDS011;62687;55.738;37.516;2023-02-04T00:54:08;6.32;;;3.47;;
74291;SDS011;62687;55.738;37.516;2023-02-04T00:56:52;11.75;;;5.45;;
74291;SDS011;62687;55.738;37.516;2023-02-04T00:59:36;5.28;;;2.75;;
74291;SDS011;62687;55.738;37.516;2023-02-04T01:02:20;6.38;;;2.97;;
74291;SDS011;62687;55.738;37.516;2023-02-04T01:05:05;8.48;;;3.28;;
74291;SDS011;62687;55.738;37.516;2023-02-04T01:10:34;5.97;;;2.78;;
74291;SDS011;62687;55.738;37.516;2023-02-04T01:13:18;5.03;;;2.72;;
74291;SDS011;62687;55.738;37.516;2023-02-04T01:16:02;4.28;;;2.42;;
74291;SDS011;62687;55.738;37.516;2023-02-04T01:18:46;7.15;;;3.50;;
74291;SDS011;62687;55.738;37.516;2023-02-04T01:21:30;7.55;;;3.38;;
74291;SDS011;62687;55.738;37.516;2023-02-04T01:24:15;5.78;;;3.08;;
74291;SDS011;62687;55.738;37.516;2023-02-04T01:26:59;6.82;;;3.15;;
74291;SDS011;62687;55.738;37.516;2023-02-04T01:29:43;6.45;;;3.42;;
74291;SDS011;62687;55.738;37.516;2023-02-04T01:32:27;6.55;;;3.13;;
74291;SDS011;62687;55.738;37.516;2023-02-04T01:35:11;4.80;;;3.03;;
74291;SDS011;62687;55.738;37.516;2023-02-04T01:37:55;6.82;;;3.47;;
74291;SDS011;62687;55.738;37.516;2023-02-04T01:40:39;5.28;;;3.17;;
74291;SDS011;62687;55.738;37.516;2023-02-04T01:43:24;8.98;;;3.42;;
74291;SDS011;62687;55.738;37.516;2023-02-04T01:46:09;9.30;;;3.70;;
74291;SDS011;62687;55.738;37.516;2023-02-04T01:48:53;5.78;;;3.17;;
74291;SDS011;62687;55.738;37.516;2023-02-04T01:51:38;5.35;;;3.03;;
74291;SDS011;62687;55.738;37.516;2023-02-04T01:54:22;7.60;;;3.33;;
74291;SDS011;62687;55.738;37.516;2023-02-04T01:57:08;6.68;;;3.38;;
74291;SDS011;62687;55.738;37.516;2023-02-04T01:59:57;6.50;;;3.70;;
74291;SDS011;62687;55.738;37.516;2023-02-04T02:02:45;7.07;;;3.10;;
74291;SDS011;62687;55.738;37.516;2023-02-04T02:05:42;6.45;;;3.85;;
74291;SDS011;62687;55.738;37.516;2023-02-04T02:08:29;5.55;;;3.13;;
74291;SDS011;62687;55.738;37.516;2023-02-04T02:11:13;16.08;;;4.20;;
74291;SDS011;62687;55.738;37.516;2023-02-04T02:13:57;9.45;;;3.78;;
74291;SDS011;62687;55.738;37.516;2023-02-04T02:16:41;8.02;;;3.80;;
74291;SDS011;62687;55.738;37.516;2023-02-04T02:19:26;5.90;;;3.47;;
74291;SDS011;62687;55.738;37.516;2023-02-04T02:25:21;7.10;;;3.63;;
74291;SDS011;62687;55.738;37.516;2023-02-04T02:28:08;11.20;;;4.60;;
74291;SDS011;62687;55.738;37.516;2023-02-04T02:30:55;9.27;;;4.07;;
74291;SDS011;62687;55.738;37.516;2023-02-04T02:33:39;6.55;;;3.67;;
74291;SDS011;62687;55.738;37.516;2023-02-04T02:36:23;6.60;;;3.90;;
74291;SDS011;62687;55.738;37.516;2023-02-04T02:39:08;8.48;;;3.47;;
74291;SDS011;62687;55.738;37.516;2023-02-04T02:41:53;6.03;;;3.65;;
74291;SDS011;62687;55.738;37.516;2023-02-04T02:44:39;7.82;;;3.67;;
74291;SDS011;62687;55.738;37.516;2023-02-04T02:47:23;6.15;;;3.05;;
74291;SDS011;62687;55.738;37.516;2023-02-04T02:50:09;6.88;;;3.50;;
74291;SDS011;62687;55.738;37.516;2023-02-04T02:52:57;6.93;;;3.47;;
74291;SDS011;62687;55.738;37.516;2023-02-04T02:55:42;4.95;;;3.05;;
74291;SDS011;62687;55.738;37.516;2023-02-04T02:58:28;7.63;;;3.38;;
74291;SDS011;62687;55.738;37.516;2023-02-04T03:01:16;7.68;;;3.58;;
74291;SDS011;62687;55.738;37.516;2023-02-04T03:04:00;6.80;;;3.67;;
74291;SDS011;62687;55.738;37.516;2023-02-04T03:06:45;6.97;;;3.67;;
74291;SDS011;62687;55.738;37.516;2023-02-04T03:09:29;6.85;;;3.60;;
74291;SDS011;62687;55.738;37.516;2023-02-04T03:12:13;7.35;;;3.75;;
74291;SDS011;62687;55.738;37.516;2023-02-04T03:14:58;5.93;;;3.47;;
74291;SDS011;62687;55.738;37.516;2023-02-04T03:17:42;6.53;;;3.83;;
74291;SDS011;62687;55.738;37.516;2023-02-04T03:20:27;7.05;;;3.78;;
74291;SDS011;62687;55.738;37.516;2023-02-04T03:23:14;7.80;;;4.10;;
74291;SDS011;62687;55.738;37.516;2023-02-04T03:25:58;6.15;;;3.63;;
74291;SDS011;62687;55.738;37.516;2023-02-04T03:28:43;9.07;;;4.10;;
74291;SDS011;62687;55.738;37.516;2023-02-04T03:31:27;6.82;;;4.00;;
74291;SDS011;62687;55.738;37.516;2023-02-04T03:34:11;7.63;;;3.90;;
74291;SDS011;62687;55.738;37.516;2023-02-04T03:36:55;8.35;;;4.25;;
74291;SDS011;62687;55.738;37.516;2023-02-04T03:39:39;7.70;;;4.03;;
74291;SDS011;62687;55.738;37.516;2023-02-04T03:42:23;8.73;;;3.90;;
74291;SDS011;62687;55.738;37.516;2023-02-04T03:45:08;8.13;;;4.03;;
74291;SDS011;62687;55.738;37.516;2023-02-04T03:47:52;6.47;;;3.40;;
74291;SDS011;62687;55.738;37.516;2023-02-04T03:50:36;7.38;;;3.70;;
74291;SDS011;62687;55.738;37.516;2023-02-04T03:53:20;8.57;;;3.97;;
74291;SDS011;62687;55.738;37.516;2023-02-04T03:56:05;7.30;;;3.63;;
74291;SDS011;62687;55.738;37.516;2023-02-04T03:58:49;9.00;;;3.92;;
74291;SDS011;62687;55.738;37.516;2023-02-04T04:01:33;6.95;;;3.95;;
74291;SDS011;62687;55.738;37.516;2023-02-04T04:04:18;6.82;;;3.60;;
74291;SDS011;62687;55.738;37.516;2023-02-04T04:07:02;8.63;;;3.97;;
74291;SDS011;62687;55.738;37.516;2023-02-04T04:09:46;8.40;;;4.28;;
74291;SDS011;62687;55.738;37.516;2023-02-04T04:12:30;7.72;;;4.15;;
74291;SDS011;62687;55.738;37.516;2023-02-04T04:15:13;9.02;;;4.35;;
74291;SDS011;62687;55.738;37.516;2023-02-04T04:17:58;9.02;;;4.40;;
74291;SDS011;62687;55.738;37.516;2023-02-04T04:20:42;8.70;;;4.22;;
74291;SDS011;62687;55.738;37.516;2023-02-04T04:23:26;6.50;;;3.70;;
74291;SDS011;62687;55.738;37.516;2023-02-04T04:26:10;8.15;;;4.65;;
74291;SDS011;62687;55.738;37.516;2023-02-04T04:28:54;7.63;;;4.07;;
74291;SDS011;62687;55.738;37.516;2023-02-04T04:31:41;10.80;;;4.43;;
74291;SDS011;62687;55.738;37.516;2023-02-04T04:34:25;6.07;;;3.42;;
74291;SDS011;62687;55.738;37.516;2023-02-04T04:37:09;10.40;;;4.47;;
74291;SDS011;62687;55.738;37.516;2023-02-04T04:39:52;8.20;;;4.60;;
74291;SDS011;62687;55.738;37.516;2023-02-04T04:42:36;9.60;;;3.97;;
74291;SDS011;62687;55.738;37.516;2023-02-04T04:45:20;7.47;;;4.13;;
74291;SDS011;62687;55.738;37.516;2023-02-04T04:48:04;7.80;;;4.40;;
74291;SDS011;62687;55.738;37.516;2023-02-04T04:50:48;8.65;;;4.00;;
74291;SDS011;62687;55.738;37.516;2023-02-04T04:53:32;8.55;;;4.45;;
74291;SDS011;62687;55.738;37.516;2023-02-04T04:56:16;9.07;;;4.30;;
74291;SDS011;62687;55.738;37.516;2023-02-04T04:59:03;7.15;;;4.00;;
74291;SDS011;62687;55.738;37.516;2023-02-04T05:01:47;9.15;;;3.92;;
74291;SDS011;62687;55.738;37.516;2023-02-04T05:04:31;9.50;;;3.97;;
74291;SDS011;62687;55.738;37.516;2023-02-04T05:07:15;7.88;;;3.92;;
74291;SDS011;62687;55.738;37.516;2023-02-04T05:09:59;10.18;;;4.00;;
74291;SDS011;62687;55.738;37.516;2023-02-04T05:12:43;9.10;;;4.28;;
74291;SDS011;62687;55.738;37.516;2023-02-04T05:15:28;7.65;;;4.05;;
74291;SDS011;62687;55.738;37.516;2023-02-04T05:18:12;8.43;;;4.45;;
74291;SDS011;62687;55.738;37.516;2023-02-04T05:20:56;6.80;;;3.90;;
74291;SDS011;62687;55.738;37.516;2023-02-04T05:23:39;7.75;;;4.60;;
74291;SDS011;62687;55.738;37.516;2023-02-04T05:26:23;8.93;;;4.53;;
74291;SDS011;62687;55.738;37.516;2023-02-04T05:29:08;9.55;;;4.88;;
74291;SDS011;62687;55.738;37.516;2023-02-04T05:31:53;7.30;;;3.80;;
74291;SDS011;62687;55.738;37.516;2023-02-04T05:34:36;7.22;;;3.97;;
74291;SDS011;62687;55.738;37.516;2023-02-04T05:37:21;7.68;;;4.15;;
74291;SDS011;62687;55.738;37.516;2023-02-04T05:40:04;10.38;;;4.28;;
74291;SDS011;62687;55.738;37.516;2023-02-04T05:42:49;8.80;;;4.43;;
74291;SDS011;62687;55.738;37.516;2023-02-04T05:45:33;7.75;;;4.22;;
74291;SDS011;62687;55.738;37.516;2023-02-04T05:48:17;8.10;;;4.30;;
74291;SDS011;62687;55.738;37.516;2023-02-04T05:51:01;8.27;;;3.97;;
74291;SDS011;62687;55.738;37.516;2023-02-04T05:53:45;8.82;;;4.18;;
74291;SDS011;62687;55.738;37.516;2023-02-04T05:56:29;7.78;;;4.28;;
74291;SDS011;62687;55.738;37.516;2023-02-04T05:59:12;8.85;;;3.97;;
74291;SDS011;62687;55.738;37.516;2023-02-04T06:01:57;8.82;;;4.20;;
74291;SDS011;62687;55.738;37.516;2023-02-04T06:04:43;8.82;;;4.75;;
74291;SDS011;62687;55.738;37.516;2023-02-04T06:07:27;8.60;;;4.70;;
74291;SDS011;62687;55.738;37.516;2023-02-04T06:10:11;10.63;;;4.55;;
74291;SDS011;62687;55.738;37.516;2023-02-04T06:12:55;9.82;;;4.47;;
74291;SDS011;62687;55.738;37.516;2023-02-04T06:15:39;10.07;;;4.45;;
74291;SDS011;62687;55.738;37.516;2023-02-04T06:18:26;12.68;;;5.05;;
74291;SDS011;62687;55.738;37.516;2023-02-04T06:21:10;9.23;;;5.35;;
74291;SDS011;62687;55.738;37.516;2023-02-04T06:23:54;12.05;;;5.20;;
74291;SDS011;62687;55.738;37.516;2023-02-04T06:26:38;9.38;;;5.18;;
74291;SDS011;62687;55.738;37.516;2023-02-04T06:29:22;8.23;;;4.60;;
74291;SDS011;62687;55.738;37.516;2023-02-04T06:32:07;9.75;;;5.10;;
74291;SDS011;62687;55.738;37.516;2023-02-04T06:34:53;10.35;;;5.55;;
74291;SDS011;62687;55.738;37.516;2023-02-04T06:37:37;10.35;;;4.85;;
74291;SDS011;62687;55.738;37.516;2023-02-04T06:40:21;11.48;;;5.28;;
74291;SDS011;62687;55.738;37.516;2023-02-04T06:43:05;13.57;;;5.50;;
74291;SDS011;62687;55.738;37.516;2023-02-04T06:45:50;14.32;;;5.53;;
74291;SDS011;62687;55.738;37.516;2023-02-04T06:48:34;12.57;;;5.60;;
74291;SDS011;62687;55.738;37.516;2023-02-04T06:51:19;10.55;;;5.60;;
74291;SDS011;62687;55.738;37.516;2023-02-04T06:54:03;15.68;;;5.47;;
74291;SDS011;62687;55.738;37.516;2023-02-04T06:56:47;13.18;;;5.97;;
74291;SDS011;62687;55.738;37.516;2023-02-04T06:59:35;12.00;;;5.68;;
74291;SDS011;62687;55.738;37.516;2023-02-04T07:02:20;18.55;;;5.65;;
74291;SDS011;62687;55.738;37.516;2023-02-04T07:05:04;10.98;;;5.75;;
74291;SDS011;62687;55.738;37.516;2023-02-04T07:07:49;11.60;;;5.97;;
74291;SDS011;62687;55.738;37.516;2023-02-04T07:10:33;15.43;;;5.70;;
74291;SDS011;62687;55.738;37.516;2023-02-04T07:13:16;12.05;;;5.75;;
74291;SDS011;62687;55.738;37.516;2023-02-04T07:16:00;11.07;;;5.68;;
74291;SDS011;62687;55.738;37.516;2023-02-04T07:18:45;13.07;;;5.80;;
74291;SDS011;62687;55.738;37.516;2023-02-04T07:21:29;13.60;;;5.75;;
74291;SDS011;62687;55.738;37.516;2023-02-04T07:24:13;13.55;;;6.38;;
74291;SDS011;62687;55.738;37.516;2023-02-04T07:26:57;12.80;;;6.10;;
74291;SDS011;62687;55.738;37.516;2023-02-04T07:29:44;14.02;;;5.63;;
74291;SDS011;62687;55.738;37.516;2023-02-04T07:32:28;10.82;;;5.55;;
74291;SDS011;62687;55.738;37.516;2023-02-04T07:35:15;13.20;;;6.13;;
74291;SDS011;62687;55.738;37.516;2023-02-04T07:38:00;33.63;;;10.55;;
74291;SDS011;62687;55.738;37.516;2023-02-04T07:40:44;19.25;;;7.38;;
74291;SDS011;62687;55.738;37.516;2023-02-04T07:43:28;13.43;;;6.22;;
74291;SDS011;62687;55.738;37.516;2023-02-04T07:46:12;12.85;;;6.18;;
74291;SDS011;62687;55.738;37.516;2023-02-04T07:48:56;14.25;;;7.38;;
74291;SDS011;62687;55.738;37.516;2023-02-04T07:51:40;15.95;;;7.55;;
74291;SDS011;62687;55.738;37.516;2023-02-04T07:54:24;16.60;;;7.35;;
74291;SDS011;62687;55.738;37.516;2023-02-04T07:57:08;14.43;;;7.60;;
74291;SDS011;62687;55.738;37.516;2023-02-04T07:59:52;23.73;;;9.63;;
74291;SDS011;62687;55.738;37.516;2023-02-04T08:02:36;19.92;;;8.35;;
74291;SDS011;62687;55.738;37.516;2023-02-04T08:05:20;19.27;;;7.53;;
74291;SDS011;62687;55.738;37.516;2023-02-04T08:08:04;14.65;;;6.80;;
74291;SDS011;62687;55.738;37.516;2023-02-04T08:10:48;13.80;;;6.50;;
74291;SDS011;62687;55.738;37.516;2023-02-04T08:13:32;16.13;;;7.43;;
74291;SDS011;62687;55.738;37.516;2023-02-04T08:16:16;13.20;;;6.60;;
74291;SDS011;62687;55.738;37.516;2023-02-04T08:19:00;15.20;;;6.70;;
74291;SDS011;62687;55.738;37.516;2023-02-04T08:21:44;16.05;;;6.22;;
74291;SDS011;62687;55.738;37.516;2023-02-04T08:24:28;15.65;;;6.95;;
74291;SDS011;62687;55.738;37.516;2023-02-04T08:27:12;13.20;;;6.57;;
74291;SDS011;62687;55.738;37.516;2023-02-04T08:29:57;15.40;;;6.25;;
74291;SDS011;62687;55.738;37.516;2023-02-04T08:32:41;24.05;;;7.05;;
74291;SDS011;62687;55.738;37.516;2023-02-04T08:35:25;14.68;;;7.65;;
74291;SDS011;62687;55.738;37.516;2023-02-04T08:38:09;15.05;;;6.68;;
74291;SDS011;62687;55.738;37.516;2023-02-04T08:40:53;13.18;;;6.57;;
74291;SDS011;62687;55.738;37.516;2023-02-04T08:43:37;14.82;;;6.50;;
74291;SDS011;62687;55.738;37.516;2023-02-04T08:46:21;16.58;;;7.43;;
74291;SDS011;62687;55.738;37.516;2023-02-04T08:49:05;18.17;;;7.65;;
74291;SDS011;62687;55.738;37.516;2023-02-04T08:51:49;17.80;;;8.25;;
74291;SDS011;62687;55.738;37.516;2023-02-04T08:54:33;32.03;;;11.57;;
74291;SDS011;62687;55.738;37.516;2023-02-04T08:57:18;22.63;;;10.50;;
74291;SDS011;62687;55.738;37.516;2023-02-04T09:02:30;17.83;;;7.75;;
74291;SDS011;62687;55.738;37.516;2023-02-04T09:05:14;21.45;;;9.48;;
74291;SDS011;62687;55.738;37.516;2023-02-04T09:07:58;24.80;;;11.43;;
74291;SDS011;62687;55.738;37.516;2023-02-04T09:10:42;15.02;;;7.60;;
74291;SDS011;62687;55.738;37.516;2023-02-04T09:13:26;16.75;;;8.15;;
74291;SDS011;62687;55.738;37.516;2023-02-04T09:16:10;16.50;;;7.85;;
74291;SDS011;62687;55.738;37.516;2023-02-04T09:18:55;15.68;;;7.45;;
74291;SDS011;62687;55.738;37.516;2023-02-04T09:21:41;15.70;;;7.40;;
74291;SDS011;62687;55.738;37.516;2023-02-04T09:24:25;15.65;;;6.78;;
74291;SDS011;62687;55.738;37.516;2023-02-04T09:27:09;16.13;;;6.72;;
74291;SDS011;62687;55.738;37.516;2023-02-04T09:29:53;15.30;;;7.50;;
74291;SDS011;62687;55.738;37.516;2023-02-04T09:32:38;15.57;;;7.35;;
74291;SDS011;62687;55.738;37.516;2023-02-04T09:35:22;18.67;;;7.20;;
74291;SDS011;62687;55.738;37.516;2023-02-04T09:38:06;13.35;;;6.72;;
74291;SDS011;62687;55.738;37.516;2023-02-04T09:41:09;15.50;;;7.75;;
74291;SDS011;62687;55.738;37.516;2023-02-04T09:46:39;17.02;;;8.07;;
74291;SDS011;62687;55.738;37.516;2023-02-04T09:49:26;17.20;;;7.28;;
74291;SDS011;62687;55.738;37.516;2023-02-04T09:52:11;14.43;;;7.38;;
74291;SDS011;62687;55.738;37.516;2023-02-04T09:54:58;15.00;;;7.63;;
74291;SDS011;62687;55.738;37.516;2023-02-04T09:57:43;18.60;;;8.18;;
74291;SDS011;62687;55.738;37.516;2023-02-04T10:00:28;18.92;;;8.15;;
74291;SDS011;62687;55.738;37.516;2023-02-04T10:05:43;21.30;;;8.25;;
74291;SDS011;62687;55.738;37.516;2023-02-04T10:08:29;17.17;;;7.70;;
74291;SDS011;62687;55.738;37.516;2023-02-04T10:11:16;16.73;;;7.18;;
74291;SDS011;62687;55.738;37.516;2023-02-04T10:14:02;16.30;;;7.97;;
74291;SDS011;62687;55.738;37.516;2023-02-04T10:16:47;17.90;;;8.60;;
74291;SDS011;62687;55.738;37.516;2023-02-04T10:19:44;16.52;;;7.68;;
74291;SDS011;62687;55.738;37.516;2023-02-04T10:22:28;18.02;;;8.45;;
74291;SDS011;62687;55.738;37.516;2023-02-04T10:25:14;15.50;;;8.48;;
74291;SDS011;62687;55.738;37.516;2023-02-04T10:28:00;17.35;;;9.00;;
74291;SDS011;62687;55.738;37.516;2023-02-04T10:30:44;16.38;;;8.75;;
74291;SDS011;62687;55.738;37.516;2023-02-04T10:33:30;18.73;;;8.52;;
74291;SDS011;62687;55.738;37.516;2023-02-04T10:36:14;16.35;;;8.43;;
74291;SDS011;62687;55.738;37.516;2023-02-04T10:39:00;17.00;;;8.88;;
74291;SDS011;62687;55.738;37.516;2023-02-04T10:41:58;17.23;;;8.80;;
74291;SDS011;62687;55.738;37.516;2023-02-04T10:44:45;16.42;;;8.13;;
74291;SDS011;62687;55.738;37.516;2023-02-04T10:47:30;27.40;;;10.10;;
74291;SDS011;62687;55.738;37.516;2023-02-04T10:50:18;24.70;;;9.75;;
74291;SDS011;62687;55.738;37.516;2023-02-04T10:53:04;20.20;;;9.63;;
74291;SDS011;62687;55.738;37.516;2023-02-04T10:56:17;20.30;;;10.68;;
74291;SDS011;62687;55.738;37.516;2023-02-04T10:59:03;19.13;;;9.77;;
74291;SDS011;62687;55.738;37.516;2023-02-04T11:01:48;19.35;;;9.57;;
74291;SDS011;62687;55.738;37.516;2023-02-04T11:04:32;21.35;;;10.32;;
74291;SDS011;62687;55.738;37.516;2023-02-04T11:07:16;22.52;;;9.52;;
74291;SDS011;62687;55.738;37.516;2023-02-04T11:10:00;18.77;;;10.20;;
74291;SDS011;62687;55.738;37.516;2023-02-04T11:13:05;24.10;;;10.88;;
74291;SDS011;62687;55.738;37.516;2023-02-04T11:15:53;18.15;;;8.45;;
74291;SDS011;62687;55.738;37.516;2023-02-04T11:22:49;18.80;;;9.55;;
74291;SDS011;62687;55.738;37.516;2023-02-04T11:25:32;16.25;;;8.90;;
74291;SDS011;62687;55.738;37.516;2023-02-04T11:28:24;19.02;;;9.85;;
74291;SDS011;62687;55.738;37.516;2023-02-04T11:39:46;11.68;;;5.00;;
74291;SDS011;62687;55.738;37.516;2023-02-04T11:42:41;13.75;;;7.43;;
74291;SDS011;62687;55.738;37.516;2023-02-04T11:45:26;11.20;;;5.80;;
74291;SDS011;62687;55.738;37.516;2023-02-04T11:48:19;16.88;;;6.85;;
74291;SDS011;62687;55.738;37.516;2023-02-04T11:51:10;16.23;;;7.70;;
74291;SDS011;62687;55.738;37.516;2023-02-04T11:53:57;16.50;;;7.55;;
74291;SDS011;62687;55.738;37.516;2023-02-04T11:56:41;15.15;;;7.80;;
74291;SDS011;62687;55.738;37.516;2023-02-04T11:59:25;19.00;;;8.25;;
74291;SDS011;62687;55.738;37.516;2023-02-04T12:02:17;14.05;;;7.32;;
74291;SDS011;62687;55.738;37.516;2023-02-04T12:05:12;16.85;;;8.23;;
74291;SDS011;62687;55.738;37.516;2023-02-04T12:08:08;18.52;;;8.43;;
74291;SDS011;62687;55.738;37.516;2023-02-04T12:11:02;18.23;;;9.05;;
74291;SDS011;62687;55.738;37.516;2023-02-04T12:13:54;18.58;;;9.15;;
74291;SDS011;62687;55.738;37.516;2023-02-04T12:16:49;19.63;;;9.05;;
74291;SDS011;62687;55.738;37.516;2023-02-04T12:19:34;19.80;;;10.00;;
74291;SDS011;62687;55.738;37.516;2023-02-04T12:22:18;19.52;;;9.32;;
74291;SDS011;62687;55.738;37.516;2023-02-04T12:25:02;17.73;;;8.52;;
74291;SDS011;62687;55.738;37.516;2023-02-04T12:27:46;18.50;;;8.80;;
74291;SDS011;62687;55.738;37.516;2023-02-04T12:30:30;16.23;;;8.52;;
74291;SDS011;62687;55.738;37.516;2023-02-04T12:33:14;16.02;;;8.38;;
74291;SDS011;62687;55.738;37.516;2023-02-04T12:35:58;18.00;;;8.50;;
74291;SDS011;62687;55.738;37.516;2023-02-04T12:38:42;18.83;;;8.45;;
74291;SDS011;62687;55.738;37.516;2023-02-04T12:41:26;16.13;;;8.32;;
74291;SDS011;62687;55.738;37.516;2023-02-04T12:44:11;17.52;;;7.10;;
74291;SDS011;62687;55.738;37.516;2023-02-04T12:46:55;15.27;;;7.30;;
74291;SDS011;62687;55.738;37.516;2023-02-04T12:49:39;17.05;;;7.05;;
74291;SDS011;62687;55.738;37.516;2023-02-04T12:52:22;13.75;;;6.68;;
74291;SDS011;62687;55.738;37.516;2023-02-04T12:55:07;10.68;;;4.60;;
74291;SDS011;62687;55.738;37.516;2023-02-04T12:57:52;10.77;;;5.70;;
74291;SDS011;62687;55.738;37.516;2023-02-04T13:00:36;10.23;;;4.70;;
74291;SDS011;62687;55.738;37.516;2023-02-04T13:03:21;9.30;;;4.95;;
74291;SDS011;62687;55.738;37.516;2023-02-04T13:06:07;10.93;;;5.40;;
74291;SDS011;62687;55.738;37.516;2023-02-04T13:08:51;10.98;;;5.05;;
74291;SDS011;62687;55.738;37.516;2023-02-04T13:11:34;14.43;;;5.13;;
74291;SDS011;62687;55.738;37.516;2023-02-04T13:14:18;10.05;;;4.32;;
74291;SDS011;62687;55.738;37.516;2023-02-04T13:17:02;10.73;;;4.80;;
74291;SDS011;62687;55.738;37.516;2023-02-04T13:19:46;11.63;;;5.28;;
74291;SDS011;62687;55.738;37.516;2023-02-04T13:22:30;12.68;;;5.13;;
74291;SDS011;62687;55.738;37.516;2023-02-04T13:25:15;10.73;;;5.47;;
74291;SDS011;62687;55.738;37.516;2023-02-04T13:27:59;14.20;;;5.90;;
74291;SDS011;62687;55.738;37.516;2023-02-04T13:30:43;12.90;;;5.70;;
74291;SDS011;62687;55.738;37.516;2023-02-04T13:33:27;13.38;;;6.03;;
74291;SDS011;62687;55.738;37.516;2023-02-04T13:36:12;16.38;;;7.10;;
74291;SDS011;62687;55.738;37.516;2023-02-04T13:38:55;18.00;;;7.65;;
74291;SDS011;62687;55.738;37.516;2023-02-04T13:41:42;16.48;;;8.27;;
74291;SDS011;62687;55.738;37.516;2023-02-04T13:44:26;17.88;;;7.80;;
74291;SDS011;62687;55.738;37.516;2023-02-04T13:47:11;18.08;;;7.45;;
74291;SDS011;62687;55.738;37.516;2023-02-04T13:49:55;17.58;;;7.90;;
74291;SDS011;62687;55.738;37.516;2023-02-04T13:52:39;22.60;;;8.15;;
74291;SDS011;62687;55.738;37.516;2023-02-04T13:58:10;16.48;;;8.20;;
74291;SDS011;62687;55.738;37.516;2023-02-04T14:00:54;18.33;;;8.60;;
74291;SDS011;62687;55.738;37.516;2023-02-04T14:03:40;17.83;;;8.68;;
74291;SDS011;62687;55.738;37.516;2023-02-04T14:06:25;21.42;;;8.70;;
74291;SDS011;62687;55.738;37.516;2023-02-04T14:09:15;18.20;;;9.05;;
74291;SDS011;62687;55.738;37.516;2023-02-04T14:12:00;21.70;;;8.23;;
74291;SDS011;62687;55.738;37.516;2023-02-04T14:14:44;22.20;;;8.60;;
74291;SDS011;62687;55.738;37.516;2023-02-04T14:17:28;21.55;;;9.30;;
74291;SDS011;62687;55.738;37.516;2023-02-04T14:20:12;22.55;;;8.70;;
74291;SDS011;62687;55.738;37.516;2023-02-04T14:22:56;17.17;;;7.72;;
74291;SDS011;62687;55.738;37.516;2023-02-04T14:25:40;18.73;;;7.93;;
74291;SDS011;62687;55.738;37.516;2023-02-04T14:28:25;21.05;;;8.23;;
74291;SDS011;62687;55.738;37.516;2023-02-04T14:31:09;17.45;;;7.88;;
74291;SDS011;62687;55.738;37.516;2023-02-04T14:33:53;20.60;;;8.18;;
74291;SDS011;62687;55.738;37.516;2023-02-04T14:36:38;15.18;;;7.32;;
74291;SDS011;62687;55.738;37.516;2023-02-04T14:39:22;16.85;;;8.00;;
74291;SDS011;62687;55.738;37.516;2023-02-04T14:42:06;16.52;;;7.40;;
74291;SDS011;62687;55.738;37.516;2023-02-04T14:44:50;17.92;;;7.47;;
74291;SDS011;62687;55.738;37.516;2023-02-04T14:47:35;18.83;;;8.23;;
74291;SDS011;62687;55.738;37.516;2023-02-04T14:50:19;18.58;;;7.35;;
74291;SDS011;62687;55.738;37.516;2023-02-04T14:53:09;17.45;;;8.05;;
74291;SDS011;62687;55.738;37.516;2023-02-04T14:55:53;20.00;;;8.02;;
74291;SDS011;62687;55.738;37.516;2023-02-04T14:58:37;17.42;;;7.88;;
74291;SDS011;62687;55.738;37.516;2023-02-04T15:01:21;21.17;;;7.95;;
74291;SDS011;62687;55.738;37.516;2023-02-04T15:04:05;15.60;;;7.75;;
74291;SDS011;62687;55.738;37.516;2023-02-04T15:06:49;17.15;;;8.02;;
74291;SDS011;62687;55.738;37.516;2023-02-04T15:09:36;19.08;;;7.78;;
74291;SDS011;62687;55.738;37.516;2023-02-04T15:12:20;15.60;;;7.18;;
74291;SDS011;62687;55.738;37.516;2023-02-04T15:15:05;18.55;;;8.25;;
74291;SDS011;62687;55.738;37.516;2023-02-04T15:17:49;16.95;;;7.15;;
74291;SDS011;62687;55.738;37.516;2023-02-04T15:20:33;16.80;;;7.35;;
74291;SDS011;62687;55.738;37.516;2023-02-04T15:23:17;16.25;;;7.45;;
74291;SDS011;62687;55.738;37.516;2023-02-04T15:26:01;17.33;;;7.40;;
74291;SDS011;62687;55.738;37.516;2023-02-04T15:28:46;17.73;;;7.45;;
74291;SDS011;62687;55.738;37.516;2023-02-04T15:31:33;16.17;;;7.32;;
74291;SDS011;62687;55.738;37.516;2023-02-04T15:34:17;15.95;;;6.22;;
74291;SDS011;62687;55.738;37.516;2023-02-04T15:37:02;15.57;;;7.20;;
74291;SDS011;62687;55.738;37.516;2023-02-04T15:39:46;12.77;;;6.30;;
74291;SDS011;62687;55.738;37.516;2023-02-04T15:42:31;12.82;;;6.22;;
74291;SDS011;62687;55.738;37.516;2023-02-04T15:45:16;13.35;;;6.43;;
74291;SDS011;62687;55.738;37.516;2023-02-04T15:48:00;15.30;;;7.72;;
74291;SDS011;62687;55.738;37.516;2023-02-04T15:50:44;15.85;;;6.50;;
74291;SDS011;62687;55.738;37.516;2023-02-04T15:53:29;15.52;;;6.82;;
74291;SDS011;62687;55.738;37.516;2023-02-04T15:56:12;16.60;;;7.10;;
74291;SDS011;62687;55.738;37.516;2023-02-04T15:58:56;14.57;;;6.90;;
74291;SDS011;62687;55.738;37.516;2023-02-04T16:01:41;15.07;;;7.05;;
74291;SDS011;62687;55.738;37.516;2023-02-04T16:04:25;21.88;;;7.30;;
74291;SDS011;62687;55.738;37.516;2023-02-04T16:07:09;15.25;;;6.88;;
74291;SDS011;62687;55.738;37.516;2023-02-04T16:09:53;15.52;;;7.32;;
74291;SDS011;62687;55.738;37.516;2023-02-04T16:12:37;17.13;;;7.35;;
74291;SDS011;62687;55.738;37.516;2023-02-04T16:15:21;16.27;;;7.03;;
74291;SDS011;62687;55.738;37.516;2023-02-04T16:18:06;17.05;;;7.63;;
74291;SDS011;62687;55.738;37.516;2023-02-04T16:20:50;14.35;;;7.28;;
74291;SDS011;62687;55.738;37.516;2023-02-04T16:23:34;13.50;;;6.68;;
74291;SDS011;62687;55.738;37.516;2023-02-04T16:26:18;14.40;;;7.28;;
74291;SDS011;62687;55.738;37.516;2023-02-04T16:29:02;16.55;;;7.35;;
74291;SDS011;62687;55.738;37.516;2023-02-04T16:31:45;14.43;;;6.82;;
74291;SDS011;62687;55.738;37.516;2023-02-04T16:34:29;13.60;;;6.72;;
74291;SDS011;62687;55.738;37.516;2023-02-04T16:37:13;14.02;;;6.35;;
74291;SDS011;62687;55.738;37.516;2023-02-04T16:39:57;13.80;;;6.72;;